Time;durP1;ratioP1;P1;durP2;ratioP2;P2;SDS_P1;SDS_P2;PMS_P1;PMS_P2;Temp;Humidity;BMP_temperature;BMP_pressure;BME280_temperature;BME280_humidity;BME280_pressure;Samples;Min_cycle;Max_cycle;Signal;HPM_P1;HPM_P2
2022/08/24 00:01:14;;;;;;;7.85;4.75;;;;;;;;;;5072279;28;20062;-57
2022/08/24 00:03:41;;;;;;;5.68;4.47;;;;;;;;;;5071981;28;20025;-56
2022/08/24 00:06:08;;;;;;;6.47;4.97;;;;;;;;;;5070136;28;20056;-56
2022/08/24 00:08:35;;;;;;;5.82;4.90;;;;;;;;;;5057582;28;20491;-57
2022/08/24 00:11:01;;;;;;;8.05;5.18;;;;;;;;;;5072754;28;20016;-57
2022/08/24 00:13:26;;;;;;;7.90;5.07;;;;;;;;;;5058287;28;20029;-56
2022/08/24 00:15:52;;;;;;;7.60;5.40;;;;;;;;;;5053170;28;20036;-56
2022/08/24 00:18:18;;;;;;;6.60;4.88;;;;;;;;;;5072415;28;20520;-57
2022/08/24 00:20:44;;;;;;;6.03;4.90;;;;;;;;;;5072286;28;20035;-56
2022/08/24 00:23:10;;;;;;;6.32;5.13;;;;;;;;;;5071583;28;20028;-56
2022/08/24 00:25:35;;;;;;;8.15;5.22;;;;;;;;;;5055221;28;20490;-56
2022/08/24 00:28:02;;;;;;;7.55;5.63;;;;;;;;;;5055204;28;20032;-56
2022/08/24 00:30:28;;;;;;;8.55;5.45;;;;;;;;;;5072203;28;20478;-56
2022/08/24 00:32:54;;;;;;;5.95;5.20;;;;;;;;;;5059959;28;20090;-57
2022/08/24 00:35:20;;;;;;;6.82;5.13;;;;;;;;;;5052259;28;20036;-56
2022/08/24 00:37:48;;;;;;;5.57;4.97;;;;;;;;;;5052044;28;20544;-57
2022/08/24 00:40:23;;;;;;;5.85;5.25;;;;;;;;;;5059175;28;20051;-56
2022/08/24 00:42:49;;;;;;;6.45;5.53;;;;;;;;;;5067455;28;20024;-57
2022/08/24 00:45:16;;;;;;;9.68;5.50;;;;;;;;;;5071919;28;20027;-56
2022/08/24 00:47:57;;;;;;;6.47;5.43;;;;;;;;;;5071761;28;20504;-56
2022/08/24 00:50:32;;;;;;;6.63;5.40;;;;;;;;;;5071944;28;20036;-57
2022/08/24 00:53:01;;;;;;;7.65;5.63;;;;;;;;;;5056121;28;20025;-56
2022/08/24 00:55:27;;;;;;;;;;;;;;;;;;5071032;28;20025;-57
2022/08/24 00:58:01;;;;;;;6.47;5.30;;;;;;;;;;5064854;28;19920;-56
2022/08/24 01:00:32;;;;;;;7.38;5.30;;;;;;;;;;5063081;28;20051;-56
2022/08/24 01:03:03;;;;;;;7.25;5.32;;;;;;;;;;5054697;28;20367;-56
2022/08/24 01:05:30;;;;;;;6.03;5.43;;;;;;;;;;5051739;28;20546;-56
2022/08/24 01:07:57;;;;;;;7.68;5.80;;;;;;;;;;5051540;28;20032;-57
2022/08/24 01:10:26;;;;;;;6.53;5.75;;;;;;;;;;5051668;28;20036;-56
2022/08/24 01:12:57;;;;;;;8.35;6.28;;;;;;;;;;5049506;28;20093;-56
2022/08/24 01:15:22;;;;;;;11.50;5.82;;;;;;;;;;5056635;28;20158;-56
2022/08/24 01:20:34;;;;;;;8.82;5.80;;;;;;;;;;5071678;28;20094;-57
2022/08/24 01:23:18;;;;;;;6.43;5.63;;;;;;;;;;5051530;28;20111;-57
2022/08/24 01:25:43;;;;;;;7.10;6.13;;;;;;;;;;5051536;28;20029;-56
2022/08/24 01:28:16;;;;;;;8.30;5.75;;;;;;;;;;5050646;28;20112;-57
2022/08/24 01:30:43;;;;;;;8.93;5.90;;;;;;;;;;5051461;28;20494;-56
2022/08/24 01:33:10;;;;;;;7.13;5.80;;;;;;;;;;5063222;28;20482;-56
2022/08/24 01:35:38;;;;;;;8.77;6.25;;;;;;;;;;5060681;28;20060;-56
2022/08/24 01:38:08;;;;;;;8.00;5.82;;;;;;;;;;5071339;28;20033;-56
2022/08/24 01:40:42;;;;;;;6.95;5.97;;;;;;;;;;5068456;28;20470;-56
2022/08/24 01:43:08;;;;;;;6.80;5.82;;;;;;;;;;5051654;28;20086;-56
2022/08/24 01:45:33;;;;;;;9.00;6.32;;;;;;;;;;5060862;28;20021;-56
2022/08/24 01:47:59;;;;;;;8.00;6.10;;;;;;;;;;5051025;28;20025;-56
2022/08/24 01:50:25;;;;;;;6.43;5.63;;;;;;;;;;5051169;28;20490;-57
2022/08/24 01:52:51;;;;;;;8.85;6.18;;;;;;;;;;5050308;28;20044;-57
2022/08/24 01:55:17;;;;;;;7.85;6.10;;;;;;;;;;5051325;28;20056;-56
2022/08/24 01:57:43;;;;;;;9.18;5.65;;;;;;;;;;5051051;28;20033;-56
2022/08/24 02:00:15;;;;;;;9.07;6.25;;;;;;;;;;5051696;28;20390;-56
2022/08/24 02:02:42;;;;;;;6.82;6.13;;;;;;;;;;5064456;28;20033;-56
2022/08/24 02:05:08;;;;;;;8.82;6.13;;;;;;;;;;5060778;28;20020;-56
2022/08/24 02:07:34;;;;;;;8.30;6.22;;;;;;;;;;5071298;28;20056;-56
2022/08/24 02:09:59;;;;;;;8.80;6.05;;;;;;;;;;5053695;28;20049;-56
2022/08/24 02:12:25;;;;;;;8.18;7.00;;;;;;;;;;5055169;28;20561;-56
2022/08/24 02:14:51;;;;;;;9.90;6.70;;;;;;;;;;5061787;28;20032;-56
2022/08/24 02:17:17;;;;;;;6.75;6.05;;;;;;;;;;5050870;28;20486;-56
2022/08/24 02:19:43;;;;;;;7.00;6.30;;;;;;;;;;5051201;28;20032;-56
2022/08/24 02:22:09;;;;;;;10.15;6.35;;;;;;;;;;5069975;28;20065;-56
2022/08/24 02:24:35;;;;;;;9.05;5.85;;;;;;;;;;5070868;28;20371;-57
2022/08/24 02:27:01;;;;;;;8.88;6.50;;;;;;;;;;5062947;28;20032;-56
2022/08/24 02:29:26;;;;;;;9.50;6.18;;;;;;;;;;5069614;28;20115;-56
2022/08/24 02:31:52;;;;;;;9.45;6.72;;;;;;;;;;5070468;28;20470;-57
2022/08/24 02:34:17;;;;;;;9.63;6.63;;;;;;;;;;5054385;28;20382;-57
2022/08/24 02:36:43;;;;;;;8.43;7.10;;;;;;;;;;5065142;28;20118;-56
2022/08/24 02:39:09;;;;;;;7.68;6.18;;;;;;;;;;5074204;28;20027;-56
2022/08/24 02:41:36;;;;;;;8.20;6.78;;;;;;;;;;5073738;28;20115;-55
2022/08/24 02:44:03;;;;;;;8.70;6.55;;;;;;;;;;5073503;28;20024;-56
2022/08/24 02:46:30;;;;;;;7.38;6.68;;;;;;;;;;5064118;28;20020;-56
2022/08/24 02:48:58;;;;;;;8.48;6.57;;;;;;;;;;5068034;28;20546;-55
2022/08/24 02:51:32;;;;;;;6.90;6.25;;;;;;;;;;5071624;28;20036;-56
2022/08/24 02:53:58;;;;;;;8.18;6.30;;;;;;;;;;5060739;28;20047;-56
2022/08/24 02:56:24;;;;;;;9.15;6.82;;;;;;;;;;5074020;28;20024;-55
2022/08/24 02:58:50;;;;;;;8.88;6.40;;;;;;;;;;5073535;28;20013;-56
2022/08/24 03:01:16;;;;;;;8.02;6.55;;;;;;;;;;5057336;28;20078;-55
2022/08/24 03:03:42;;;;;;;10.82;6.13;;;;;;;;;;5073649;28;20020;-55
2022/08/24 03:06:08;;;;;;;8.02;6.53;;;;;;;;;;5063856;28;20528;-56
2022/08/24 03:08:34;;;;;;;8.18;6.32;;;;;;;;;;5053644;28;20033;-56
2022/08/24 03:11:00;;;;;;;7.40;6.57;;;;;;;;;;5055091;28;20463;-55
2022/08/24 03:13:27;;;;;;;8.05;6.25;;;;;;;;;;5067273;28;20111;-56
2022/08/24 03:15:54;;;;;;;11.73;6.88;;;;;;;;;;5062787;28;20044;-55
2022/08/24 03:18:20;;;;;;;8.20;6.72;;;;;;;;;;5060507;28;20021;-55
2022/08/24 03:20:46;;;;;;;8.32;6.60;;;;;;;;;;5053831;28;20378;-55
2022/08/24 03:23:11;;;;;;;8.18;6.68;;;;;;;;;;5057157;28;20027;-56
2022/08/24 03:25:37;;;;;;;10.43;6.45;;;;;;;;;;5065159;28;20036;-55
2022/08/24 03:28:02;;;;;;;8.02;6.80;;;;;;;;;;5052905;28;20440;-56
2022/08/24 03:30:28;;;;;;;9.57;7.20;;;;;;;;;;5053402;28;20036;-55
2022/08/24 03:32:53;;;;;;;7.90;6.60;;;;;;;;;;5072377;28;20397;-56
2022/08/24 03:35:21;;;;;;;6.95;6.25;;;;;;;;;;5065801;28;20029;-56
2022/08/24 03:37:48;;;;;;;7.88;6.50;;;;;;;;;;5064232;28;20035;-55
2022/08/24 03:40:13;;;;;;;8.95;6.97;;;;;;;;;;5057814;28;20025;-55
2022/08/24 03:42:39;;;;;;;7.68;6.68;;;;;;;;;;5068367;28;20025;-56
2022/08/24 03:45:05;;;;;;;10.93;7.32;;;;;;;;;;5070305;28;20074;-55
2022/08/24 03:47:31;;;;;;;9.20;6.25;;;;;;;;;;5073138;28;20043;-56
2022/08/24 03:49:57;;;;;;;11.32;7.78;;;;;;;;;;5072972;28;20033;-56
2022/08/24 03:52:22;;;;;;;11.65;8.77;;;;;;;;;;5072128;28;20479;-56
2022/08/24 03:54:48;;;;;;;9.98;6.93;;;;;;;;;;5066844;28;20043;-56
2022/08/24 03:57:13;;;;;;;9.25;6.88;;;;;;;;;;5062505;28;20033;-55
2022/08/24 03:59:39;;;;;;;8.43;6.63;;;;;;;;;;5059020;28;20025;-55
2022/08/24 04:02:04;;;;;;;8.35;6.72;;;;;;;;;;5064439;28;20082;-56
2022/08/24 04:04:30;;;;;;;9.23;7.07;;;;;;;;;;5052788;28;20029;-55
2022/08/24 04:06:56;;;;;;;8.18;6.10;;;;;;;;;;5052853;28;20071;-56
2022/08/24 04:09:22;;;;;;;7.82;6.35;;;;;;;;;;5052562;28;20446;-55
2022/08/24 04:11:48;;;;;;;8.32;7.05;;;;;;;;;;5051895;28;20048;-55
2022/08/24 04:14:15;;;;;;;12.32;6.65;;;;;;;;;;5052284;28;20028;-56
2022/08/24 04:16:40;;;;;;;8.63;6.55;;;;;;;;;;5052770;28;20024;-55
2022/08/24 04:19:06;;;;;;;9.30;6.15;;;;;;;;;;5063971;28;20028;-56
2022/08/24 04:21:34;;;;;;;10.23;7.47;;;;;;;;;;5071628;28;20060;-56
2022/08/24 04:24:00;;;;;;;10.80;7.43;;;;;;;;;;5072138;28;20039;-56
2022/08/24 04:26:28;;;;;;;9.45;6.70;;;;;;;;;;5072324;28;20024;-56
2022/08/24 04:28:54;;;;;;;8.73;6.97;;;;;;;;;;5071535;28;20105;-56
2022/08/24 04:31:20;;;;;;;8.35;6.63;;;;;;;;;;5056370;28;20033;-56
2022/08/24 04:33:48;;;;;;;10.02;6.40;;;;;;;;;;5068271;28;20151;-55
2022/08/24 04:36:15;;;;;;;12.25;7.30;;;;;;;;;;5052178;28;20495;-56
2022/08/24 04:38:40;;;;;;;9.63;6.43;;;;;;;;;;5051922;28;20079;-56
2022/08/24 04:41:08;;;;;;;8.05;6.45;;;;;;;;;;5052012;28;20028;-55
2022/08/24 04:43:34;;;;;;;9.43;6.90;;;;;;;;;;5055755;28;20500;-56
2022/08/24 04:46:03;;;;;;;8.98;6.00;;;;;;;;;;5065715;28;20367;-55
2022/08/24 04:48:28;;;;;;;7.93;6.57;;;;;;;;;;5062277;28;20032;-56
2022/08/24 04:50:54;;;;;;;9.70;6.57;;;;;;;;;;5066229;28;20028;-56
2022/08/24 04:53:19;;;;;;;6.82;6.18;;;;;;;;;;5070879;28;20021;-56
2022/08/24 04:55:48;;;;;;;8.45;6.28;;;;;;;;;;5071736;28;20021;-56
2022/08/24 04:58:15;;;;;;;7.60;6.40;;;;;;;;;;5050051;28;20025;-56
2022/08/24 05:00:42;;;;;;;8.70;6.75;;;;;;;;;;5065528;28;20409;-55
2022/08/24 05:03:07;;;;;;;7.88;6.30;;;;;;;;;;5069090;28;20024;-56
2022/08/24 05:05:33;;;;;;;7.45;6.65;;;;;;;;;;5051734;28;20144;-56
2022/08/24 05:07:59;;;;;;;8.48;6.50;;;;;;;;;;5061155;28;20063;-56
2022/08/24 05:10:24;;;;;;;8.50;6.78;;;;;;;;;;5071593;28;20028;-56
2022/08/24 05:12:50;;;;;;;8.07;6.57;;;;;;;;;;5052142;28;20033;-56
2022/08/24 05:15:15;;;;;;;9.60;7.57;;;;;;;;;;5051591;28;20028;-55
2022/08/24 05:17:41;;;;;;;10.48;6.53;;;;;;;;;;5059583;28;20031;-56
2022/08/24 05:20:08;;;;;;;9.20;7.05;;;;;;;;;;5059515;28;20437;-56
2022/08/24 05:22:34;;;;;;;10.48;6.90;;;;;;;;;;5050419;28;20079;-56
2022/08/24 05:25:00;;;;;;;9.25;7.53;;;;;;;;;;5071084;28;20024;-56
2022/08/24 05:27:25;;;;;;;9.00;7.25;;;;;;;;;;5071357;28;20432;-56
2022/08/24 05:29:52;;;;;;;9.65;7.32;;;;;;;;;;5058369;28;20060;-56
2022/08/24 05:32:18;;;;;;;8.50;6.47;;;;;;;;;;5065620;28;20036;-57
2022/08/24 05:34:44;;;;;;;9.73;6.03;;;;;;;;;;5068576;28;20033;-57
2022/08/24 05:37:09;;;;;;;7.57;6.10;;;;;;;;;;5051145;28;20025;-56
2022/08/24 05:39:34;;;;;;;9.15;7.07;;;;;;;;;;5061275;28;20090;-57
2022/08/24 05:42:00;;;;;;;15.60;9.60;;;;;;;;;;5056487;28;20055;-56
2022/08/24 05:44:26;;;;;;;16.75;11.00;;;;;;;;;;5061191;28;20478;-57
2022/08/24 05:46:53;;;;;;;15.60;9.02;;;;;;;;;;5056373;28;20065;-57
2022/08/24 05:49:18;;;;;;;9.35;6.95;;;;;;;;;;5070989;28;20021;-57
2022/08/24 05:51:43;;;;;;;10.95;7.00;;;;;;;;;;5070346;28;20032;-57
2022/08/24 05:54:12;;;;;;;8.77;6.65;;;;;;;;;;5054101;28;20036;-57
2022/08/24 05:56:37;;;;;;;11.80;6.88;;;;;;;;;;5071174;28;20098;-57
2022/08/24 05:59:03;;;;;;;7.93;6.85;;;;;;;;;;5061344;28;20025;-57
2022/08/24 06:01:28;;;;;;;9.95;7.68;;;;;;;;;;5054340;28;20055;-57
2022/08/24 06:03:54;;;;;;;8.48;6.95;;;;;;;;;;5054814;28;20080;-57
2022/08/24 06:06:21;;;;;;;10.65;7.80;;;;;;;;;;5054807;28;20035;-57
2022/08/24 06:08:50;;;;;;;9.40;8.10;;;;;;;;;;5054626;28;20025;-57
2022/08/24 06:11:34;;;;;;;11.60;8.30;;;;;;;;;;5054716;28;20108;-57
2022/08/24 06:14:03;;;;;;;11.73;8.10;;;;;;;;;;5054369;28;20029;-56
2022/08/24 06:16:28;;;;;;;10.50;7.47;;;;;;;;;;5061292;28;20108;-57
2022/08/24 06:18:54;;;;;;;10.25;8.40;;;;;;;;;;5074519;28;20460;-57
2022/08/24 06:21:23;;;;;;;9.63;8.23;;;;;;;;;;5073740;28;20056;-57
2022/08/24 06:23:49;;;;;;;9.15;7.85;;;;;;;;;;5056115;28;20029;-57
2022/08/24 06:28:59;;;;;;;8.90;7.45;;;;;;;;;;5062331;28;20044;-56
2022/08/24 06:31:26;;;;;;;9.50;7.78;;;;;;;;;;5073646;28;20028;-57
2022/08/24 06:33:52;;;;;;;14.45;7.95;;;;;;;;;;5074446;28;20104;-57
2022/08/24 06:36:17;;;;;;;11.10;8.18;;;;;;;;;;5074579;28;20108;-56
2022/08/24 06:38:43;;;;;;;11.52;7.50;;;;;;;;;;5062710;28;20478;-57
2022/08/24 06:41:08;;;;;;;11.75;8.40;;;;;;;;;;5069637;28;20020;-57
2022/08/24 06:43:35;;;;;;;10.45;7.72;;;;;;;;;;5070129;28;20025;-56
2022/08/24 06:46:01;;;;;;;11.43;8.40;;;;;;;;;;5060896;28;20385;-56
2022/08/24 06:48:26;;;;;;;12.10;8.05;;;;;;;;;;5063890;28;20055;-56
2022/08/24 06:50:53;;;;;;;12.82;8.70;;;;;;;;;;5068560;28;20051;-57
2022/08/24 06:53:19;;;;;;;9.68;7.95;;;;;;;;;;5054971;28;20037;-57
2022/08/24 06:55:53;;;;;;;12.85;8.52;;;;;;;;;;5054231;28;20078;-57
2022/08/24 06:58:19;;;;;;;16.88;8.70;;;;;;;;;;5064288;28;20394;-57
2022/08/24 07:00:45;;;;;;;11.10;8.50;;;;;;;;;;5073821;28;20028;-57
2022/08/24 07:03:11;;;;;;;10.98;8.07;;;;;;;;;;5056763;28;20025;-57
2022/08/24 07:05:36;;;;;;;13.00;9.65;;;;;;;;;;5074045;28;20020;-57
2022/08/24 07:08:03;;;;;;;14.05;9.20;;;;;;;;;;5073811;28;20029;-57
2022/08/24 07:10:30;;;;;;;10.50;8.63;;;;;;;;;;5059039;28;20041;-57
2022/08/24 07:12:55;;;;;;;12.13;8.27;;;;;;;;;;5052275;28;20106;-56
2022/08/24 07:15:22;;;;;;;10.93;7.80;;;;;;;;;;5053661;28;20052;-57
2022/08/24 07:17:48;;;;;;;10.27;7.50;;;;;;;;;;5053544;28;20033;-57
2022/08/24 07:20:14;;;;;;;8.93;7.43;;;;;;;;;;5066112;28;20375;-57
2022/08/24 07:22:39;;;;;;;10.73;7.43;;;;;;;;;;5072261;28;20116;-57
2022/08/24 07:25:06;;;;;;;9.55;7.38;;;;;;;;;;5053485;28;20063;-57
2022/08/24 07:27:32;;;;;;;8.77;7.20;;;;;;;;;;5053605;28;20091;-57
2022/08/24 07:29:57;;;;;;;8.93;7.60;;;;;;;;;;5065660;28;20107;-57
2022/08/24 07:32:23;;;;;;;10.77;8.07;;;;;;;;;;5056403;28;20108;-57
2022/08/24 07:34:49;;;;;;;13.45;8.65;;;;;;;;;;5056770;28;20367;-57
2022/08/24 07:37:15;;;;;;;9.52;8.00;;;;;;;;;;5073439;28;20044;-57
2022/08/24 07:39:40;;;;;;;13.50;7.82;;;;;;;;;;5061938;28;20070;-57
2022/08/24 07:42:06;;;;;;;8.68;7.75;;;;;;;;;;5052431;28;20071;-57
2022/08/24 07:44:31;;;;;;;8.73;7.63;;;;;;;;;;5062820;28;20031;-57
2022/08/24 07:46:57;;;;;;;10.93;7.93;;;;;;;;;;5059468;28;20509;-57
2022/08/24 07:49:22;;;;;;;10.65;8.27;;;;;;;;;;5062760;28;20025;-57
2022/08/24 07:51:51;;;;;;;8.05;7.22;;;;;;;;;;5066298;28;20032;-56
2022/08/24 07:54:18;;;;;;;10.50;7.20;;;;;;;;;;5070773;28;20020;-57
2022/08/24 07:56:43;;;;;;;10.88;7.90;;;;;;;;;;5057851;28;20089;-57
2022/08/24 07:59:09;;;;;;;10.68;7.78;;;;;;;;;;5072254;28;20028;-57
2022/08/24 08:01:34;;;;;;;10.30;7.32;;;;;;;;;;5058546;28;20497;-58
2022/08/24 08:04:00;;;;;;;12.60;7.45;;;;;;;;;;5052536;28;20101;-57
2022/08/24 08:06:25;;;;;;;10.15;7.60;;;;;;;;;;5052911;28;20021;-56
2022/08/24 08:08:50;;;;;;;8.68;7.72;;;;;;;;;;5061046;28;20561;-56
2022/08/24 08:11:16;;;;;;;10.07;7.80;;;;;;;;;;5072401;28;20436;-56
2022/08/24 08:13:41;;;;;;;10.30;7.53;;;;;;;;;;5071341;28;20024;-56
2022/08/24 08:16:07;;;;;;;11.13;8.25;;;;;;;;;;5068721;28;20021;-56
2022/08/24 08:18:33;;;;;;;9.98;8.05;;;;;;;;;;5052480;28;20031;-57
2022/08/24 08:21:00;;;;;;;9.40;7.65;;;;;;;;;;5064040;28;20452;-56
2022/08/24 08:26:19;;;;;;;10.88;6.65;;;;;;;;;;5052471;28;20055;-56
2022/08/24 08:28:44;;;;;;;8.00;7.07;;;;;;;;;;5062272;28;20031;-57
2022/08/24 08:31:11;;;;;;;9.68;6.15;;;;;;;;;;5057691;28;20036;-56
2022/08/24 08:33:36;;;;;;;9.98;6.40;;;;;;;;;;5067509;28;20021;-57
2022/08/24 08:36:12;;;;;;;10.38;6.90;;;;;;;;;;5052251;28;20032;-57
2022/08/24 08:38:38;;;;;;;8.52;6.78;;;;;;;;;;5062843;28;20025;-56
2022/08/24 08:41:20;;;;;;;11.10;6.20;;;;;;;;;;5057002;28;20025;-56
2022/08/24 08:44:00;;;;;;;7.50;5.93;;;;;;;;;;5053467;28;20025;-57
2022/08/24 08:46:53;;;;;;;8.90;6.03;;;;;;;;;;5062485;28;20025;-57
2022/08/24 08:49:35;;;;;;;6.97;6.07;;;;;;;;;;5070188;28;20079;-56
2022/08/24 08:52:28;;;;;;;7.85;6.05;;;;;;;;;;5051473;28;20059;-57
2022/08/24 08:55:26;;;;;;;9.77;5.43;;;;;;;;;;5067271;28;20021;-57
2022/08/24 08:58:07;;;;;;;8.18;5.43;;;;;;;;;;5049256;28;20048;-58
2022/08/24 09:00:41;;;;;;;6.97;5.05;;;;;;;;;;5069302;28;20103;-58
2022/08/24 09:03:33;;;;;;;6.43;5.13;;;;;;;;;;5068589;28;20103;-58
2022/08/24 09:06:26;;;;;;;7.05;4.85;;;;;;;;;;5061526;28;20020;-57
2022/08/24 09:08:56;;;;;;;8.93;5.35;;;;;;;;;;5071486;28;20025;-58
2022/08/24 09:11:47;;;;;;;5.95;5.13;;;;;;;;;;5070871;28;20020;-58
2022/08/24 09:14:43;;;;;;;7.32;5.15;;;;;;;;;;5070977;28;20033;-58
2022/08/24 09:17:27;;;;;;;10.25;5.30;;;;;;;;;;5051425;28;20543;-57
2022/08/24 09:20:11;;;;;;;9.00;4.97;;;;;;;;;;5051454;28;20053;-58
2022/08/24 09:22:43;;;;;;;6.70;4.38;;;;;;;;;;5050564;28;20025;-58
2022/08/24 09:25:11;;;;;;;9.50;5.03;;;;;;;;;;5051500;28;20398;-58
2022/08/24 09:28:10;;;;;;;5.72;4.40;;;;;;;;;;5051407;28;20482;-58
2022/08/24 09:30:45;;;;;;;5.85;4.78;;;;;;;;;;5051271;28;20085;-59
2022/08/24 09:33:22;;;;;;;6.85;5.18;;;;;;;;;;5050293;28;20028;-59
2022/08/24 09:35:50;;;;;;;6.00;4.80;;;;;;;;;;5051050;28;20094;-58
2022/08/24 09:38:28;;;;;;;10.07;5.18;;;;;;;;;;5051148;28;20028;-58
2022/08/24 09:41:18;;;;;;;7.82;4.75;;;;;;;;;;5051984;28;20441;-58
2022/08/24 09:44:02;;;;;;;8.45;4.93;;;;;;;;;;5063246;28;20028;-58
2022/08/24 09:46:36;;;;;;;5.93;4.63;;;;;;;;;;5071236;28;20308;-58
2022/08/24 09:49:20;;;;;;;5.15;4.65;;;;;;;;;;5070989;28;20259;-58
2022/08/24 09:51:56;;;;;;;5.82;3.80;;;;;;;;;;5070429;28;20024;-59
2022/08/24 09:55:00;;;;;;;4.45;3.90;;;;;;;;;;5054741;28;20056;-58
2022/08/24 09:57:54;;;;;;;5.88;3.63;;;;;;;;;;5071218;28;20078;-58
2022/08/24 10:00:19;;;;;;;8.10;3.50;;;;;;;;;;5054917;28;20406;-58
2022/08/24 10:02:50;;;;;;;5.18;3.78;;;;;;;;;;5062921;28;20028;-58
2022/08/24 10:05:41;;;;;;;8.57;3.75;;;;;;;;;;5051188;28;20406;-58
2022/08/24 10:08:25;;;;;;;7.90;4.18;;;;;;;;;;5050701;28;20028;-58
2022/08/24 10:10:50;;;;;;;4.10;3.70;;;;;;;;;;5051095;28;20021;-58
2022/08/24 10:13:16;;;;;;;4.88;3.60;;;;;;;;;;5049886;28;20305;-58
2022/08/24 10:15:50;;;;;;;5.22;3.20;;;;;;;;;;5050976;28;20485;-58
2022/08/24 10:18:34;;;;;;;5.43;3.33;;;;;;;;;;5056386;28;20384;-58
2022/08/24 10:21:12;;;;;;;4.78;3.00;;;;;;;;;;5070924;28;20020;-58
2022/08/24 10:24:05;;;;;;;3.53;2.80;;;;;;;;;;5053726;28;20021;-56
2022/08/24 10:26:58;;;;;;;5.78;3.40;;;;;;;;;;5062299;28;20033;-56
2022/08/24 10:29:38;;;;;;;2.83;2.50;;;;;;;;;;5066513;28;20028;-56
2022/08/24 10:32:07;;;;;;;3.42;2.85;;;;;;;;;;5049961;28;20104;-58
2022/08/24 10:35:02;;;;;;;3.20;2.45;;;;;;;;;;5051195;28;20074;-57
2022/08/24 10:39:39;;;;;;;6.88;3.03;;;;;;;;;;5068479;28;20028;-58
2022/08/24 10:41:02;;;;;;;3.85;2.70;;;;;;;;;;5062189;28;20103;-57
2022/08/24 10:43:46;;;;;;;3.20;2.90;;;;;;;;;;5054657;28;20021;-58
2022/08/24 10:46:56;;;;;;;3.35;2.50;;;;;;;;;;5073299;28;20021;-57
2022/08/24 10:49:34;;;;;;;4.30;3.20;;;;;;;;;;5069941;28;20036;-58
2022/08/24 10:52:05;;;;;;;3.90;2.50;;;;;;;;;;5061315;28;20043;-57
2022/08/24 10:54:35;;;;;;;4.55;3.03;;;;;;;;;;5073868;28;20056;-57
2022/08/24 10:57:22;;;;;;;3.30;2.50;;;;;;;;;;5057309;28;20025;-57
2022/08/24 11:00:26;;;;;;;3.47;2.60;;;;;;;;;;5053484;28;20173;-58
2022/08/24 11:03:06;;;;;;;2.97;2.50;;;;;;;;;;5070872;28;20028;-57
2022/08/24 11:05:39;;;;;;;5.20;2.50;;;;;;;;;;5075453;28;20040;-58
2022/08/24 11:08:05;;;;;;;2.83;2.03;;;;;;;;;;5062918;28;20039;-58
2022/08/24 11:10:38;;;;;;;2.92;2.25;;;;;;;;;;5068479;28;20028;-57
2022/08/24 11:13:23;;;;;;;2.28;2.08;;;;;;;;;;5071102;28;20035;-58
2022/08/24 11:15:58;;;;;;;4.45;2.30;;;;;;;;;;5073945;28;20449;-59
2022/08/24 11:18:25;;;;;;;3.65;2.13;;;;;;;;;;5073558;28;20052;-58
2022/08/24 11:20:53;;;;;;;2.22;2.03;;;;;;;;;;5053513;28;20503;-58
2022/08/24 11:23:27;;;;;;;;;;;;;;;;;;5060255;28;20359;-58
2022/08/24 11:26:11;;;;;;;2.33;1.95;;;;;;;;;;5061790;28;20282;-57
2022/08/24 11:28:44;;;;;;;2.38;2.17;;;;;;;;;;5070880;28;20029;-58
2022/08/24 11:31:34;;;;;;;3.47;2.30;;;;;;;;;;5067395;28;20475;-58
2022/08/24 11:34:06;;;;;;;3.05;1.88;;;;;;;;;;5068668;28;20105;-58
2022/08/24 11:36:36;;;;;;;2.75;2.05;;;;;;;;;;5071246;28;20433;-58
2022/08/24 11:39:21;;;;;;;3.45;2.00;;;;;;;;;;5059848;28;20048;-59
2022/08/24 11:41:58;;;;;;;2.65;1.98;;;;;;;;;;5072546;28;20029;-58
2022/08/24 11:44:32;;;;;;;3.97;1.95;;;;;;;;;;5070338;28;20032;-58
2022/08/24 11:47:13;;;;;;;3.35;2.03;;;;;;;;;;5053274;28;20029;-58
2022/08/24 11:49:58;;;;;;;3.63;1.70;;;;;;;;;;5053026;28;20395;-58
2022/08/24 11:52:50;;;;;;;2.78;2.00;;;;;;;;;;5052061;28;20465;-58
2022/08/24 11:55:35;;;;;;;2.78;1.98;;;;;;;;;;5065693;28;20021;-58
2022/08/24 11:58:24;;;;;;;3.33;2.15;;;;;;;;;;5071823;28;20025;-58
2022/08/24 12:01:08;;;;;;;2.13;1.85;;;;;;;;;;5071378;28;20494;-58
2022/08/24 12:03:49;;;;;;;2.10;1.90;;;;;;;;;;5051999;28;20113;-58
2022/08/24 12:06:26;;;;;;;3.15;2.20;;;;;;;;;;5056764;28;20032;-58
2022/08/24 12:09:01;;;;;;;3.05;2.30;;;;;;;;;;5062011;28;20041;-59
2022/08/24 12:11:33;;;;;;;4.40;1.95;;;;;;;;;;5052055;28;20025;-58
2022/08/24 12:14:10;;;;;;;4.65;2.00;;;;;;;;;;5068430;28;20057;-58
2022/08/24 12:16:56;;;;;;;2.78;2.22;;;;;;;;;;5060922;28;20024;-58
2022/08/24 12:19:47;;;;;;;4.15;2.30;;;;;;;;;;5070653;28;20028;-58
2022/08/24 12:22:14;;;;;;;2.38;2.17;;;;;;;;;;5065607;28;20078;-58
2022/08/24 12:24:44;;;;;;;7.13;2.42;;;;;;;;;;5052453;28;20032;-58
2022/08/24 12:27:20;;;;;;;3.88;2.35;;;;;;;;;;5066470;28;20040;-58
2022/08/24 12:29:55;;;;;;;4.10;2.58;;;;;;;;;;5071796;28;20244;-58
2022/08/24 12:32:23;;;;;;;2.63;2.20;;;;;;;;;;5071414;28;20025;-58
2022/08/24 12:35:03;;;;;;;2.38;2.10;;;;;;;;;;5072264;28;20052;-58
2022/08/24 12:38:01;;;;;;;5.38;2.47;;;;;;;;;;5068889;28;20093;-57
2022/08/24 12:40:32;;;;;;;4.20;2.65;;;;;;;;;;5057985;28;20045;-59
2022/08/24 12:43:05;;;;;;;3.15;2.40;;;;;;;;;;5065550;28;20025;-57
2022/08/24 12:45:31;;;;;;;3.47;3.13;;;;;;;;;;5071878;28;20055;-58
2022/08/24 12:48:22;;;;;;;4.40;2.53;;;;;;;;;;5064642;28;20053;-58
2022/08/24 12:50:50;;;;;;;3.05;2.55;;;;;;;;;;5051826;28;20036;-58
2022/08/24 12:53:34;;;;;;;;;;;;;;;;;;5070367;28;20069;-58
2022/08/24 12:56:24;;;;;;;3.13;2.78;;;;;;;;;;5071925;28;19915;-58
2022/08/24 12:59:02;;;;;;;3.85;2.80;;;;;;;;;;5055182;28;20017;-59
2022/08/24 13:01:34;;;;;;;3.27;2.70;;;;;;;;;;5050956;28;20024;-59
2022/08/24 13:04:30;;;;;;;3.60;2.80;;;;;;;;;;5061875;28;20016;-59
2022/08/24 13:07:06;;;;;;;3.05;2.75;;;;;;;;;;5056932;28;20521;-58
2022/08/24 13:09:38;;;;;;;3.38;2.83;;;;;;;;;;5063469;28;20436;-58
2022/08/24 13:12:42;;;;;;;3.10;2.75;;;;;;;;;;5051222;28;20021;-58
2022/08/24 13:15:26;;;;;;;3.63;2.70;;;;;;;;;;5056156;28;20036;-58
2022/08/24 13:17:57;;;;;;;3.97;2.60;;;;;;;;;;5054272;28;20032;-58
2022/08/24 13:20:28;;;;;;;3.85;2.80;;;;;;;;;;5066948;28;20040;-57
2022/08/24 13:23:12;;;;;;;4.03;3.03;;;;;;;;;;5050832;28;20040;-58
2022/08/24 13:26:18;;;;;;;3.58;2.70;;;;;;;;;;5051424;28;20024;-58
2022/08/24 13:28:47;;;;;;;3.47;2.80;;;;;;;;;;5066944;28;20068;-58
2022/08/24 13:31:30;;;;;;;3.05;2.75;;;;;;;;;;5051334;28;20033;-58
2022/08/24 13:34:05;;;;;;;5.22;3.20;;;;;;;;;;5064843;28;20248;-58
2022/08/24 13:36:33;;;;;;;3.45;3.15;;;;;;;;;;5052637;28;20035;-58
2022/08/24 13:39:01;;;;;;;;;;;;;;;;;;5051557;28;20032;-58
2022/08/24 13:41:36;;;;;;;;;;;;;;;;;;5051236;28;19913;-58
2022/08/24 13:44:38;;;;;;;3.78;2.63;;;;;;;;;;5059509;28;19915;-58
2022/08/24 13:47:26;;;;;;;3.53;2.55;;;;;;;;;;5071208;28;20130;-58
2022/08/24 13:50:13;;;;;;;;;;;;;;;;;;5071660;28;20020;-59
2022/08/24 13:52:44;;;;;;;3.92;2.58;;;;;;;;;;5070481;28;19915;-59
2022/08/24 13:55:19;;;;;;;2.72;2.50;;;;;;;;;;5060870;28;20032;-58
2022/08/24 13:57:51;;;;;;;3.17;2.85;;;;;;;;;;5053921;28;20016;-58
2022/08/24 14:00:28;;;;;;;3.05;2.67;;;;;;;;;;5071096;28;20039;-58
2022/08/24 14:03:05;;;;;;;5.47;2.77;;;;;;;;;;5061386;28;20434;-58
2022/08/24 14:05:55;;;;;;;4.72;2.28;;;;;;;;;;5065664;28;20290;-58
2022/08/24 14:08:32;;;;;;;3.53;2.58;;;;;;;;;;5051186;28;20039;-59
2022/08/24 14:11:09;;;;;;;3.15;2.70;;;;;;;;;;5051358;28;20398;-59
2022/08/24 14:13:35;;;;;;;6.05;2.40;;;;;;;;;;5049859;28;20087;-58
2022/08/24 14:19:25;;;;;;;3.38;2.67;;;;;;;;;;5051231;28;20125;-58
2022/08/24 14:22:05;;;;;;;;;;;;;;;;;;5054269;28;20061;-59
2022/08/24 14:24:39;;;;;;;3.33;2.63;;;;;;;;;;5054427;28;19955;-59
2022/08/24 14:27:09;;;;;;;2.85;2.53;;;;;;;;;;5054740;28;20148;-59
2022/08/24 14:29:40;;;;;;;2.97;2.70;;;;;;;;;;5072205;28;20024;-58
2022/08/24 14:32:05;;;;;;;2.78;2.58;;;;;;;;;;5066282;28;20032;-58
2022/08/24 14:34:47;;;;;;;5.20;3.22;;;;;;;;;;5064728;28;20028;-58
2022/08/24 14:37:12;;;;;;;4.57;3.58;;;;;;;;;;5074948;28;20039;-58
2022/08/24 14:39:50;;;;;;;4.90;2.60;;;;;;;;;;5074281;28;20028;-58
2022/08/24 14:42:34;;;;;;;5.13;2.83;;;;;;;;;;5073780;28;20558;-58
2022/08/24 14:45:09;;;;;;;3.22;2.92;;;;;;;;;;5057914;28;20029;-58
2022/08/24 14:47:43;;;;;;;3.45;3.15;;;;;;;;;;5059112;28;20085;-58
2022/08/24 14:50:28;;;;;;;8.40;2.65;;;;;;;;;;5064703;28;20441;-58
2022/08/24 14:53:21;;;;;;;7.10;2.72;;;;;;;;;;5053568;28;20079;-59
2022/08/24 14:55:55;;;;;;;3.35;2.88;;;;;;;;;;5054317;28;20032;-58
2022/08/24 14:58:38;;;;;;;3.35;2.65;;;;;;;;;;5066281;28;20052;-58
2022/08/24 15:01:23;;;;;;;3.63;2.50;;;;;;;;;;5074139;28;20033;-58
2022/08/24 15:04:05;;;;;;;4.43;2.40;;;;;;;;;;5073804;28;20040;-58
2022/08/24 15:06:46;;;;;;;3.85;2.70;;;;;;;;;;5074293;28;20429;-58
2022/08/24 15:09:27;;;;;;;4.40;2.60;;;;;;;;;;5073584;28;20490;-58
2022/08/24 15:12:02;;;;;;;3.67;2.88;;;;;;;;;;5062790;28;20493;-58
2022/08/24 15:14:40;;;;;;;4.47;2.80;;;;;;;;;;5053232;28;20040;-58
2022/08/24 15:17:16;;;;;;;4.37;3.37;;;;;;;;;;5053815;28;20028;-58
2022/08/24 15:19:56;;;;;;;3.85;2.97;;;;;;;;;;5063391;28;20016;-58
2022/08/24 15:22:39;;;;;;;3.25;2.65;;;;;;;;;;5072842;28;20024;-58
2022/08/24 15:25:22;;;;;;;3.25;2.95;;;;;;;;;;5068379;28;20060;-58